createdAt,value
2023-05-19T00:02:09.350Z,4.53
2023-05-19T00:04:40.683Z,4.73
2023-05-19T00:07:12.266Z,4.97
2023-05-19T00:09:41.260Z,4.57
2023-05-19T00:12:11.627Z,4.83
2023-05-19T00:14:42.514Z,4.30
2023-05-19T00:17:11.308Z,4.60
2023-05-19T00:19:40.370Z,4.70
2023-05-19T00:22:09.027Z,4.20
2023-05-19T00:24:37.408Z,4.10
2023-05-19T00:27:06.535Z,4.27
2023-05-19T00:29:34.988Z,4.17
2023-05-19T00:32:05.485Z,4.53
2023-05-19T00:34:34.602Z,4.43
2023-05-19T00:37:03.139Z,4.00
2023-05-19T00:39:31.499Z,4.37
2023-05-19T00:41:59.996Z,4.70
2023-05-19T00:44:28.354Z,3.80
2023-05-19T00:46:57.040Z,3.87
2023-05-19T00:49:26.919Z,4.07
2023-05-19T00:51:56.800Z,4.03
2023-05-19T00:54:25.198Z,4.00
2023-05-19T00:56:55.439Z,4.57
2023-05-19T00:59:23.890Z,4.10
2023-05-19T01:01:52.506Z,4.10
2023-05-19T01:04:21.816Z,3.87
2023-05-19T01:06:55.203Z,4.27
2023-05-19T01:09:23.951Z,3.33
2023-05-19T01:11:53.738Z,4.37
2023-05-19T01:14:23.091Z,4.00
2023-05-19T01:16:59.468Z,4.13
2023-05-19T01:19:40.340Z,4.20
2023-05-19T01:22:32.145Z,4.27
2023-05-19T01:25:33.626Z,4.10
2023-05-19T01:28:27.272Z,3.77
2023-05-19T01:30:58.067Z,4.07
2023-05-19T01:33:27.801Z,3.67
2023-05-19T01:35:57.125Z,3.50
2023-05-19T01:38:27.809Z,3.63
2023-05-19T01:40:58.335Z,3.07
2023-05-19T01:43:28.347Z,3.40
2023-05-19T01:45:59.181Z,3.53
2023-05-19T01:48:29.968Z,3.30
2023-05-19T01:50:58.797Z,3.70
2023-05-19T01:53:27.535Z,3.20
2023-05-19T01:55:57.572Z,3.57
2023-05-19T01:58:36.366Z,3.47
2023-05-19T02:01:17.627Z,3.20
2023-05-19T02:04:03.492Z,3.33
2023-05-19T02:06:42.046Z,3.00
2023-05-19T02:09:16.820Z,3.87
2023-05-19T02:11:52.057Z,3.33
2023-05-19T02:14:26.114Z,3.33
2023-05-19T02:16:58.333Z,4.00
2023-05-19T02:19:28.846Z,3.43
2023-05-19T02:21:57.539Z,3.87
2023-05-19T02:24:26.199Z,3.50
2023-05-19T02:26:55.063Z,4.33
2023-05-19T02:29:23.583Z,3.33
2023-05-19T02:31:52.186Z,3.67
2023-05-19T02:34:22.957Z,3.77
2023-05-19T02:36:51.882Z,3.33
2023-05-19T02:39:20.354Z,3.03
2023-05-19T02:41:48.917Z,4.13
2023-05-19T02:44:17.338Z,3.57
2023-05-19T02:46:45.875Z,3.70
2023-05-19T02:49:14.492Z,3.83
2023-05-19T02:51:44.478Z,3.57
2023-05-19T02:54:12.873Z,3.67
2023-05-19T02:56:41.545Z,3.60
2023-05-19T02:59:10.055Z,3.23
2023-05-19T03:01:40.497Z,3.73
2023-05-19T03:04:09.060Z,3.83
2023-05-19T03:06:38.926Z,3.33
2023-05-19T03:09:08.798Z,3.70
2023-05-19T03:11:37.398Z,3.13
2023-05-19T03:14:05.903Z,4.77
2023-05-19T03:16:34.550Z,3.57
2023-05-19T03:19:03.142Z,3.90
2023-05-19T03:21:32.126Z,3.50
2023-05-19T03:24:00.730Z,2.93
2023-05-19T03:26:30.725Z,3.23
2023-05-19T03:28:59.216Z,3.93
2023-05-19T03:31:27.829Z,3.90
2023-05-19T03:33:57.848Z,3.70
2023-05-19T03:36:26.413Z,3.57
2023-05-19T03:38:54.855Z,3.73
2023-05-19T03:41:23.336Z,4.00
2023-05-19T03:43:53.078Z,4.87
2023-05-19T03:46:21.930Z,4.20
2023-05-19T03:48:50.725Z,3.90
2023-05-19T03:51:19.382Z,3.83
2023-05-19T03:53:48.706Z,3.93
2023-05-19T03:56:18.238Z,3.50
2023-05-19T03:58:48.457Z,3.73
2023-05-19T04:01:18.277Z,3.60
2023-05-19T04:03:47.972Z,3.80
2023-05-19T04:06:17.542Z,4.17
2023-05-19T04:08:46.609Z,3.73
2023-05-19T04:11:15.231Z,3.73
2023-05-19T04:13:45.163Z,3.80
2023-05-19T04:16:13.783Z,3.60
2023-05-19T04:18:46.519Z,3.70
2023-05-19T04:21:15.126Z,3.30
2023-05-19T04:23:43.755Z,3.60
2023-05-19T04:26:12.285Z,3.63
2023-05-19T04:28:42.544Z,3.40
2023-05-19T04:31:12.801Z,3.93
2023-05-19T04:33:41.963Z,3.67
2023-05-19T04:36:13.809Z,3.60
2023-05-19T04:38:42.244Z,3.60
2023-05-19T04:41:12.126Z,3.40
2023-05-19T04:43:41.988Z,3.97
2023-05-19T04:46:13.984Z,3.83
2023-05-19T04:48:43.056Z,4.20
2023-05-19T04:51:14.342Z,3.90
2023-05-19T04:53:43.787Z,3.63
2023-05-19T04:56:15.236Z,3.87
2023-05-19T04:58:44.990Z,3.50
2023-05-19T05:01:15.862Z,3.80
2023-05-19T05:03:45.466Z,4.27
2023-05-19T05:06:15.181Z,3.90
2023-05-19T05:08:44.992Z,3.70
2023-05-19T05:11:13.983Z,3.97
2023-05-19T05:13:43.087Z,3.63
2023-05-19T05:16:13.393Z,3.80
2023-05-19T05:18:44.913Z,3.90
2023-05-19T05:21:15.499Z,3.67
2023-05-19T05:23:44.658Z,3.70
2023-05-19T05:26:18.699Z,3.43
2023-05-19T05:28:47.326Z,3.60
2023-05-19T05:31:15.827Z,3.90
2023-05-19T05:33:45.413Z,3.77
2023-05-19T05:36:15.215Z,3.57
2023-05-19T05:38:44.221Z,3.43
2023-05-19T05:41:12.647Z,3.90
2023-05-19T05:43:41.126Z,4.03
2023-05-19T05:46:10.064Z,2.90
2023-05-19T05:48:38.877Z,3.53
2023-05-19T05:51:08.535Z,3.57
2023-05-19T05:53:42.220Z,3.50
2023-05-19T05:56:12.793Z,3.10
2023-05-19T05:58:41.682Z,3.50
2023-05-19T06:01:11.666Z,3.40
2023-05-19T06:03:41.730Z,3.87
2023-05-19T06:06:10.530Z,3.40
2023-05-19T06:08:40.244Z,3.53
2023-05-19T06:11:09.691Z,3.23
2023-05-19T06:13:38.227Z,3.57
2023-05-19T06:16:07.398Z,3.40
2023-05-19T06:18:35.878Z,3.47
2023-05-19T06:21:04.754Z,3.80
2023-05-19T06:23:33.129Z,3.47
2023-05-19T06:26:03.246Z,4.23
2023-05-19T06:28:31.706Z,3.67
2023-05-19T06:31:00.365Z,4.10
2023-05-19T06:33:29.360Z,3.63
2023-05-19T06:35:57.969Z,3.60
2023-05-19T06:38:26.577Z,3.03
2023-05-19T06:40:55.338Z,3.80
2023-05-19T06:43:25.805Z,3.40
2023-05-19T06:45:54.694Z,3.53
2023-05-19T06:48:23.075Z,3.70
2023-05-19T06:50:51.907Z,3.70
2023-05-19T06:53:21.392Z,3.60
2023-05-19T06:55:59.310Z,3.70
2023-05-19T06:58:29.736Z,3.60
2023-05-19T07:00:58.342Z,2.90
2023-05-19T07:03:27.293Z,3.20
2023-05-19T07:05:56.351Z,3.40
2023-05-19T07:08:24.806Z,3.30
2023-05-19T07:10:55.540Z,3.47
2023-05-19T07:13:25.959Z,3.40
2023-05-19T07:15:57.548Z,3.17
2023-05-19T07:18:26.691Z,3.47
2023-05-19T07:20:55.686Z,2.83
2023-05-19T07:23:24.163Z,3.43
2023-05-19T07:25:56.377Z,3.60
2023-05-19T07:28:25.021Z,2.80
2023-05-19T07:30:53.945Z,3.20
2023-05-19T07:33:23.955Z,3.23
2023-05-19T07:35:52.301Z,3.33
2023-05-19T07:38:20.923Z,3.10
2023-05-19T07:40:49.955Z,2.93
2023-05-19T07:43:18.616Z,3.07
2023-05-19T07:45:47.363Z,3.00
2023-05-19T07:48:18.716Z,3.03
2023-05-19T07:50:48.625Z,2.80
2023-05-19T07:53:17.436Z,2.30
2023-05-19T07:55:45.998Z,2.80
2023-05-19T07:58:14.669Z,3.30
2023-05-19T08:00:44.757Z,3.00
2023-05-19T08:03:13.835Z,2.47
2023-05-19T08:05:42.457Z,2.70
2023-05-19T08:08:13.082Z,2.53
2023-05-19T08:10:41.549Z,3.10
2023-05-19T08:13:10.253Z,3.37
2023-05-19T08:15:38.972Z,3.00
2023-05-19T08:18:08.514Z,3.50
2023-05-19T08:20:37.606Z,3.50
2023-05-19T08:23:06.626Z,3.30
2023-05-19T08:25:36.611Z,2.93
2023-05-19T08:28:05.569Z,2.90
2023-05-19T08:30:34.289Z,2.93
2023-05-19T08:33:03.503Z,2.90
2023-05-19T08:35:32.584Z,3.40
2023-05-19T08:38:01.552Z,2.97
2023-05-19T08:40:31.904Z,2.83
2023-05-19T08:43:02.223Z,3.00
2023-05-19T08:45:31.336Z,3.03
2023-05-19T08:48:00.485Z,3.27
2023-05-19T08:50:32.060Z,2.93
2023-05-19T08:53:05.838Z,2.97
2023-05-19T08:55:37.841Z,3.27
2023-05-19T08:58:09.462Z,2.77
2023-05-19T09:00:38.507Z,2.80
2023-05-19T09:05:40.454Z,2.50
2023-05-19T09:08:09.591Z,2.40
2023-05-19T09:10:38.505Z,2.97
2023-05-19T09:13:08.568Z,3.33
2023-05-19T09:15:41.551Z,2.50
2023-05-19T09:18:11.566Z,2.80
2023-05-19T09:20:42.562Z,2.80
2023-05-19T09:23:15.136Z,2.90
2023-05-19T09:25:50.714Z,2.70
2023-05-19T09:28:27.441Z,3.20
2023-05-19T09:31:03.837Z,3.47
2023-05-19T09:33:35.023Z,3.57
2023-05-19T09:36:06.028Z,3.50
2023-05-19T09:38:35.946Z,3.57
2023-05-19T09:41:05.092Z,3.17
2023-05-19T09:43:36.661Z,2.73
2023-05-19T09:46:06.975Z,2.90
2023-05-19T09:48:36.762Z,2.50
2023-05-19T09:51:10.546Z,2.97
2023-05-19T09:53:40.139Z,2.90
2023-05-19T09:56:10.439Z,3.00
2023-05-19T09:58:43.294Z,3.73
2023-05-19T10:01:12.451Z,3.40
2023-05-19T10:03:42.786Z,3.23
2023-05-19T10:06:12.629Z,3.60
2023-05-19T10:08:42.343Z,3.00
2023-05-19T10:11:12.092Z,3.47
2023-05-19T10:13:42.683Z,3.00
2023-05-19T10:16:12.370Z,3.13
2023-05-19T10:18:42.294Z,3.93
2023-05-19T10:21:13.428Z,3.63
2023-05-19T10:23:42.102Z,3.67
2023-05-19T10:26:12.354Z,3.50
2023-05-19T10:28:46.117Z,3.37
2023-05-19T10:31:19.577Z,3.10
2023-05-19T10:34:06.577Z,3.33
2023-05-19T10:36:45.746Z,3.50
2023-05-19T10:39:20.498Z,3.47
2023-05-19T10:42:02.438Z,3.63
2023-05-19T10:44:47.545Z,3.90
2023-05-19T10:47:16.222Z,3.83
2023-05-19T10:49:45.912Z,4.20
2023-05-19T10:52:21.894Z,3.50
2023-05-19T10:54:51.361Z,4.30
2023-05-19T10:57:21.885Z,4.30
2023-05-19T10:59:51.837Z,4.33
2023-05-19T11:02:39.883Z,4.13
2023-05-19T11:05:10.818Z,3.97
2023-05-19T11:07:43.545Z,4.83
2023-05-19T11:10:12.411Z,4.50
2023-05-19T11:12:46.014Z,3.97
2023-05-19T11:15:19.193Z,4.10
2023-05-19T11:17:50.126Z,4.10
2023-05-19T11:20:23.901Z,4.20
2023-05-19T11:23:09.728Z,3.97
2023-05-19T11:25:46.011Z,3.83
2023-05-19T11:28:17.083Z,4.30
2023-05-19T11:30:50.286Z,4.10
2023-05-19T11:33:27.433Z,3.53
2023-05-19T11:35:58.948Z,3.80
2023-05-19T11:38:28.096Z,3.67
2023-05-19T11:40:57.728Z,3.80
2023-05-19T11:43:27.072Z,3.70
2023-05-19T11:45:57.211Z,3.70
2023-05-19T11:48:27.157Z,3.87
2023-05-19T11:50:56.995Z,3.20
2023-05-19T11:53:25.377Z,2.90
2023-05-19T11:55:53.659Z,3.17
2023-05-19T11:58:27.808Z,3.60
2023-05-19T12:00:57.712Z,2.90
2023-05-19T12:03:28.103Z,3.40
2023-05-19T12:05:58.068Z,3.30
2023-05-19T12:08:27.287Z,3.60
2023-05-19T12:10:56.220Z,3.20
2023-05-19T12:13:24.768Z,3.57
2023-05-19T12:15:53.475Z,3.20
2023-05-19T12:18:23.743Z,3.10
2023-05-19T12:20:52.286Z,2.90
2023-05-19T12:23:21.444Z,3.00
2023-05-19T12:25:49.759Z,2.97
2023-05-19T12:28:18.057Z,2.70
2023-05-19T12:30:49.598Z,2.60
2023-05-19T12:33:18.861Z,2.47
2023-05-19T12:35:49.992Z,2.33
2023-05-19T12:38:20.345Z,2.20
2023-05-19T12:40:49.413Z,2.57
2023-05-19T12:43:22.111Z,2.67
2023-05-19T12:45:51.133Z,2.43
2023-05-19T12:48:22.701Z,2.57
2023-05-19T12:50:55.460Z,2.30
2023-05-19T12:53:23.967Z,2.23
2023-05-19T12:55:53.771Z,2.40
2023-05-19T12:58:23.361Z,2.37
2023-05-19T13:00:52.923Z,2.83
2023-05-19T13:03:22.086Z,2.70
2023-05-19T13:05:51.839Z,2.40
2023-05-19T13:08:23.928Z,2.70
2023-05-19T13:10:52.514Z,2.47
2023-05-19T13:13:21.965Z,2.50
2023-05-19T13:15:50.672Z,2.57
2023-05-19T13:18:19.012Z,2.43
2023-05-19T13:20:49.132Z,2.33
2023-05-19T13:23:17.615Z,2.70
2023-05-19T13:25:47.257Z,2.67
2023-05-19T13:28:15.719Z,2.80
2023-05-19T13:30:45.626Z,2.80
2023-05-19T13:33:14.042Z,2.63
2023-05-19T13:35:42.721Z,2.50
2023-05-19T13:38:11.479Z,2.37
2023-05-19T13:40:40.450Z,2.80
2023-05-19T13:43:10.227Z,2.70
2023-05-19T13:45:38.565Z,2.90
2023-05-19T13:48:08.180Z,2.57
2023-05-19T13:50:36.575Z,2.63
2023-05-19T13:53:05.737Z,2.83
2023-05-19T13:55:34.185Z,2.70
2023-05-19T13:58:03.383Z,2.70
2023-05-19T14:00:36.222Z,2.63
2023-05-19T14:03:05.135Z,2.97
2023-05-19T14:05:33.444Z,3.27
2023-05-19T14:08:03.560Z,2.80
2023-05-19T14:10:32.145Z,2.40
2023-05-19T14:15:37.797Z,2.43
2023-05-19T14:18:07.459Z,2.70
2023-05-19T14:20:36.105Z,2.40
2023-05-19T14:23:05.088Z,2.70
2023-05-19T14:25:33.322Z,2.63
2023-05-19T14:28:02.233Z,2.50
2023-05-19T14:30:30.801Z,2.80
2023-05-19T14:33:00.704Z,2.77
2023-05-19T14:35:29.653Z,2.60
2023-05-19T14:37:58.045Z,2.57
2023-05-19T14:40:26.351Z,2.90
2023-05-19T14:42:54.881Z,2.80
2023-05-19T14:45:23.078Z,2.93
2023-05-19T14:47:51.623Z,2.53
2023-05-19T14:50:21.543Z,2.70
2023-05-19T14:52:50.176Z,2.70
2023-05-19T14:55:19.105Z,3.07
2023-05-19T14:57:47.680Z,2.50
2023-05-19T15:00:16.847Z,2.60
2023-05-19T15:02:45.430Z,2.50
2023-05-19T15:05:13.793Z,2.30
2023-05-19T15:07:43.982Z,2.30
2023-05-19T15:10:12.570Z,2.70
2023-05-19T15:12:41.458Z,2.40
2023-05-19T15:15:11.114Z,2.37
2023-05-19T15:17:40.162Z,2.30
2023-05-19T15:20:09.099Z,2.10
2023-05-19T15:22:38.149Z,2.87
2023-05-19T15:25:09.538Z,2.53
2023-05-19T15:27:38.300Z,2.30
2023-05-19T15:30:07.568Z,2.73
2023-05-19T15:32:36.049Z,2.47
2023-05-19T15:35:04.615Z,2.20
2023-05-19T15:37:33.470Z,2.60
2023-05-19T15:40:01.739Z,2.40
2023-05-19T15:42:35.081Z,2.30
2023-05-19T15:45:03.375Z,2.20
2023-05-19T15:47:32.155Z,2.63
2023-05-19T15:50:00.787Z,2.53
2023-05-19T15:52:29.291Z,2.37
2023-05-19T15:54:59.000Z,2.40
2023-05-19T15:57:27.400Z,2.50
2023-05-19T15:59:58.611Z,2.30
2023-05-19T16:02:27.606Z,2.47
2023-05-19T16:04:56.292Z,2.23
2023-05-19T16:07:24.821Z,2.90
2023-05-19T16:09:53.182Z,3.20
2023-05-19T16:12:21.710Z,2.50
2023-05-19T16:14:50.682Z,2.70
2023-05-19T16:17:20.594Z,2.90
2023-05-19T16:19:49.060Z,2.90
2023-05-19T16:22:18.071Z,4.37
2023-05-19T16:24:46.479Z,2.80
2023-05-19T16:27:14.911Z,2.80
2023-05-19T16:29:43.143Z,2.63
2023-05-19T16:32:11.796Z,2.93
2023-05-19T16:34:41.458Z,2.70
2023-05-19T16:37:10.360Z,3.00
2023-05-19T16:39:40.278Z,3.23
2023-05-19T16:42:08.974Z,3.13
2023-05-19T16:44:37.401Z,2.77
2023-05-19T16:47:05.866Z,2.90
2023-05-19T16:49:34.819Z,3.20
2023-05-19T16:52:04.876Z,3.33
2023-05-19T16:54:33.343Z,3.37
2023-05-19T16:57:02.023Z,3.50
2023-05-19T16:59:30.550Z,3.70
2023-05-19T17:01:58.972Z,4.03
2023-05-19T17:04:29.403Z,3.73
2023-05-19T17:06:59.058Z,3.47
2023-05-19T17:09:28.626Z,3.47
2023-05-19T17:11:57.179Z,4.40
2023-05-19T17:14:25.918Z,5.27
2023-05-19T17:16:54.326Z,4.87
2023-05-19T17:19:22.873Z,4.50
2023-05-19T17:21:52.348Z,3.60
2023-05-19T17:24:20.710Z,3.47
2023-05-19T17:26:50.765Z,5.20
2023-05-19T17:29:19.294Z,5.50
2023-05-19T17:31:47.781Z,5.43
2023-05-19T17:34:16.222Z,3.93
2023-05-19T17:36:44.739Z,5.90
2023-05-19T17:39:12.989Z,4.00
2023-05-19T17:41:41.997Z,3.70
2023-05-19T17:44:12.342Z,4.10
2023-05-19T17:46:41.137Z,3.73
2023-05-19T17:49:10.764Z,3.67
2023-05-19T17:51:40.472Z,4.07
2023-05-19T17:54:09.952Z,4.27
2023-05-19T17:56:43.863Z,3.60
2023-05-19T17:59:14.372Z,3.40
2023-05-19T18:01:44.329Z,4.20
2023-05-19T18:04:15.333Z,3.67
2023-05-19T18:06:46.043Z,3.90
2023-05-19T18:09:15.230Z,3.60
2023-05-19T18:11:44.303Z,3.83
2023-05-19T18:14:14.218Z,4.07
2023-05-19T18:16:43.478Z,3.67
2023-05-19T18:19:12.046Z,4.43
2023-05-19T18:21:42.648Z,4.47
2023-05-19T18:24:11.363Z,4.20
2023-05-19T18:26:42.360Z,4.47
2023-05-19T18:29:10.916Z,4.50
2023-05-19T18:31:40.790Z,4.33
2023-05-19T18:34:09.360Z,4.83
2023-05-19T18:36:38.675Z,4.83
2023-05-19T18:39:07.230Z,5.40
2023-05-19T18:41:37.447Z,5.50
2023-05-19T18:44:08.184Z,5.20
2023-05-19T18:46:36.642Z,5.37
2023-05-19T18:49:06.658Z,7.60
2023-05-19T18:51:36.335Z,7.30
2023-05-19T18:54:05.040Z,6.97
2023-05-19T18:56:34.430Z,5.40
2023-05-19T18:59:02.864Z,5.80
2023-05-19T19:01:32.904Z,5.70
2023-05-19T19:04:02.096Z,5.77
2023-05-19T19:06:32.333Z,5.70
2023-05-19T19:09:00.744Z,5.97
2023-05-19T19:11:29.261Z,6.30
2023-05-19T19:13:58.407Z,6.10
2023-05-19T19:16:26.652Z,6.00
2023-05-19T19:18:55.373Z,6.40
2023-05-19T19:21:25.823Z,6.07
2023-05-19T19:23:56.932Z,6.53
2023-05-19T19:26:26.830Z,6.27
2023-05-19T19:28:55.118Z,6.57
2023-05-19T19:31:25.696Z,8.00
2023-05-19T19:33:53.958Z,8.57
2023-05-19T19:36:22.291Z,9.17
2023-05-19T19:38:50.604Z,7.63
2023-05-19T19:41:21.205Z,6.73
2023-05-19T19:43:49.638Z,6.37
2023-05-19T19:46:17.844Z,6.00
2023-05-19T19:48:46.323Z,6.50
2023-05-19T19:51:15.319Z,6.23
2023-05-19T19:53:43.751Z,6.27
2023-05-19T19:56:12.236Z,6.07
2023-05-19T19:58:41.966Z,6.63
2023-05-19T20:01:10.384Z,6.10
2023-05-19T20:03:38.955Z,5.90
2023-05-19T20:06:07.769Z,5.73
2023-05-19T20:08:35.962Z,6.20
2023-05-19T20:11:04.191Z,6.07
2023-05-19T20:13:32.916Z,6.10
2023-05-19T20:16:02.789Z,6.63
2023-05-19T20:18:31.293Z,6.30
2023-05-19T20:20:59.785Z,6.63
2023-05-19T20:23:28.101Z,6.33
2023-05-19T20:26:11.077Z,6.47
2023-05-19T20:28:41.142Z,6.80
2023-05-19T20:31:11.036Z,6.23
2023-05-19T20:33:39.387Z,5.83
2023-05-19T20:36:08.092Z,6.40
2023-05-19T20:38:36.312Z,6.60
2023-05-19T20:41:04.880Z,6.17
2023-05-19T20:43:33.892Z,6.17
2023-05-19T20:46:03.891Z,6.97
2023-05-19T20:48:33.645Z,6.33
2023-05-19T20:51:02.146Z,6.77
2023-05-19T20:53:30.487Z,6.67
2023-05-19T20:55:58.781Z,6.37
2023-05-19T20:58:30.075Z,7.60
2023-05-19T21:00:58.465Z,6.60
2023-05-19T21:03:27.033Z,6.40
2023-05-19T21:05:57.524Z,6.40
2023-05-19T21:08:26.653Z,6.10
2023-05-19T21:10:55.113Z,6.40
2023-05-19T21:13:24.056Z,6.83
2023-05-19T21:15:53.322Z,6.90
2023-05-19T21:18:21.458Z,6.60
2023-05-19T21:20:50.015Z,7.20
2023-05-19T21:23:19.495Z,6.60
2023-05-19T21:25:48.304Z,7.57
2023-05-19T21:28:16.732Z,7.10
2023-05-19T21:30:48.449Z,7.00
2023-05-19T21:33:17.451Z,6.47
2023-05-19T21:35:46.336Z,6.93
2023-05-19T21:38:23.541Z,6.70
2023-05-19T21:40:54.107Z,6.80
2023-05-19T21:43:22.945Z,6.60
2023-05-19T21:45:51.251Z,7.37
2023-05-19T21:48:19.779Z,7.60
2023-05-19T21:50:53.407Z,6.80
2023-05-19T21:53:21.891Z,6.67
2023-05-19T21:55:50.792Z,7.23
2023-05-19T21:58:20.417Z,6.43
2023-05-19T22:00:51.698Z,6.23
2023-05-19T22:03:26.901Z,6.80
2023-05-19T22:05:55.964Z,7.30
2023-05-19T22:08:24.672Z,6.83
2023-05-19T22:10:53.787Z,6.97
2023-05-19T22:13:23.905Z,6.97
2023-05-19T22:15:52.254Z,7.00
2023-05-19T22:18:20.848Z,6.50
2023-05-19T22:20:49.842Z,6.40
2023-05-19T22:23:18.115Z,6.87
2023-05-19T22:25:46.392Z,7.37
2023-05-19T22:28:14.963Z,7.07
2023-05-19T22:30:44.530Z,8.27
2023-05-19T22:33:13.521Z,8.00
2023-05-19T22:35:52.119Z,7.50
2023-05-19T22:38:20.231Z,7.33
2023-05-19T22:40:49.657Z,7.93
2023-05-19T22:43:17.837Z,7.57
2023-05-19T22:45:47.404Z,8.13
2023-05-19T22:48:16.262Z,7.70
2023-05-19T22:50:44.909Z,7.97
2023-05-19T22:53:13.041Z,8.37
2023-05-19T22:55:41.644Z,8.27
2023-05-19T22:58:10.229Z,7.90
2023-05-19T23:00:38.444Z,8.70
2023-05-19T23:03:08.428Z,8.80
2023-05-19T23:05:36.702Z,9.30
2023-05-19T23:08:05.042Z,8.80
2023-05-19T23:10:33.413Z,8.93
2023-05-19T23:13:01.745Z,8.57
2023-05-19T23:15:30.591Z,8.87
2023-05-19T23:17:58.962Z,8.00
2023-05-19T23:20:28.677Z,8.73
2023-05-19T23:22:56.815Z,8.97
2023-05-19T23:25:25.642Z,8.90
2023-05-19T23:27:53.798Z,9.17
2023-05-19T23:30:22.190Z,9.57
2023-05-19T23:32:50.698Z,8.60
2023-05-19T23:35:20.035Z,9.50
2023-05-19T23:37:49.702Z,9.13
2023-05-19T23:40:18.020Z,8.83
2023-05-19T23:42:46.473Z,9.10
2023-05-19T23:45:14.852Z,8.73
2023-05-19T23:47:43.156Z,8.67
2023-05-19T23:50:11.893Z,9.00
2023-05-19T23:52:40.137Z,8.97
2023-05-19T23:55:12.745Z,8.20
2023-05-19T23:57:40.888Z,9.00
